createdAt,value
2023-04-18T00:00:46.849Z,79.61
2023-04-18T00:01:46.918Z,79.65
2023-04-18T00:02:46.957Z,79.71
2023-04-18T00:03:46.946Z,79.68
2023-04-18T00:04:46.918Z,79.74
2023-04-18T00:05:46.829Z,79.79
2023-04-18T00:06:46.831Z,79.80
2023-04-18T00:07:46.840Z,79.89
2023-04-18T00:08:46.766Z,79.80
2023-04-18T00:09:46.759Z,79.78
2023-04-18T00:10:46.737Z,79.79
2023-04-18T00:11:46.847Z,79.83
2023-04-18T00:12:46.701Z,79.77
2023-04-18T00:13:46.713Z,79.79
2023-04-18T00:14:46.839Z,79.83
2023-04-18T00:15:46.688Z,79.85
2023-04-18T00:16:46.757Z,79.71
2023-04-18T00:17:46.709Z,79.56
2023-04-18T00:18:46.647Z,79.53
2023-04-18T00:19:46.653Z,79.58
2023-04-18T00:20:46.596Z,79.78
2023-04-18T00:21:46.624Z,79.86
2023-04-18T00:22:46.775Z,79.86
2023-04-18T00:23:46.584Z,79.90
2023-04-18T00:24:46.576Z,79.96
2023-04-18T00:25:46.562Z,80.03
2023-04-18T00:26:46.552Z,80.04
2023-04-18T00:27:46.546Z,79.96
2023-04-18T00:28:46.511Z,79.92
2023-04-18T00:29:46.519Z,79.97
2023-04-18T00:30:46.874Z,79.94
2023-04-18T00:31:46.530Z,79.91
2023-04-18T00:32:46.522Z,79.92
2023-04-18T00:33:46.459Z,79.88
2023-04-18T00:34:46.462Z,79.83
2023-04-18T00:35:46.836Z,79.84
2023-04-18T00:36:46.453Z,79.81
2023-04-18T00:37:46.859Z,79.82
2023-04-18T00:38:46.856Z,79.89
2023-04-18T00:39:46.863Z,79.89
2023-04-18T00:40:46.382Z,79.95
2023-04-18T00:41:46.397Z,79.95
2023-04-18T00:42:46.356Z,79.92
2023-04-18T00:43:46.362Z,79.91
2023-04-18T00:44:46.334Z,79.93
2023-04-18T00:45:46.358Z,79.96
2023-04-18T00:46:46.362Z,79.94
2023-04-18T00:47:46.891Z,79.94
2023-04-18T00:48:46.861Z,79.98
2023-04-18T00:49:46.293Z,80.12
2023-04-18T00:50:46.249Z,80.11
2023-04-18T00:51:46.285Z,80.17
2023-04-18T00:52:46.237Z,80.22
2023-04-18T00:53:46.254Z,80.41
2023-04-18T00:54:46.223Z,80.43
2023-04-18T00:55:46.209Z,80.43
2023-04-18T00:56:46.215Z,80.39
2023-04-18T00:57:46.199Z,80.31
2023-04-18T00:58:46.207Z,80.22
2023-04-18T00:59:46.164Z,80.21
2023-04-18T01:00:46.141Z,80.23
2023-04-18T01:01:46.200Z,80.36
2023-04-18T01:02:46.204Z,80.36
2023-04-18T01:03:46.217Z,80.40
2023-04-18T01:04:46.110Z,80.46
2023-04-18T01:05:46.087Z,80.47
2023-04-18T01:06:46.330Z,80.49
2023-04-18T01:07:46.069Z,80.54
2023-04-18T01:08:46.044Z,80.56
2023-04-18T01:09:46.485Z,80.54
2023-04-18T01:10:46.494Z,80.56
2023-04-18T01:11:46.039Z,80.66
2023-04-18T01:12:46.541Z,80.67
2023-04-18T01:13:45.998Z,80.65
2023-04-18T01:14:45.973Z,80.71
2023-04-18T01:15:46.114Z,80.83
2023-04-18T01:16:45.980Z,80.92
2023-04-18T01:17:45.968Z,81.02
2023-04-18T01:18:45.931Z,81.06
2023-04-18T01:19:45.941Z,81.07
2023-04-18T01:20:45.902Z,81.11
2023-04-18T01:21:45.936Z,81.21
2023-04-18T01:22:45.894Z,81.16
2023-04-18T01:23:45.902Z,81.15
2023-04-18T01:24:45.871Z,81.18
2023-04-18T01:25:45.866Z,81.19
2023-04-18T01:26:45.861Z,81.25
2023-04-18T01:27:45.866Z,81.29
2023-04-18T01:28:45.810Z,81.34
2023-04-18T01:29:45.809Z,81.33
2023-04-18T01:30:45.801Z,81.35
2023-04-18T01:31:45.979Z,81.42
2023-04-18T01:32:45.795Z,81.73
2023-04-18T01:33:46.107Z,81.90
2023-04-18T01:34:45.738Z,82.09
2023-04-18T01:35:45.740Z,82.14
2023-04-18T01:36:45.714Z,82.19
2023-04-18T01:37:45.735Z,82.26
2023-04-18T01:38:45.693Z,82.34
2023-04-18T01:39:45.717Z,82.38
2023-04-18T01:40:45.672Z,82.41
2023-04-18T01:41:45.680Z,82.48
2023-04-18T01:42:45.661Z,82.49
2023-04-18T01:43:47.150Z,82.40
2023-04-18T01:44:45.650Z,82.37
2023-04-18T01:45:45.633Z,82.37
2023-04-18T01:46:45.806Z,82.39
2023-04-18T01:47:45.628Z,82.45
2023-04-18T01:48:45.609Z,82.52
2023-04-18T01:49:45.864Z,82.59
2023-04-18T01:50:45.566Z,82.61
2023-04-18T01:51:45.562Z,82.65
2023-04-18T01:52:45.543Z,82.66
2023-04-18T01:53:45.558Z,82.66
2023-04-18T01:54:45.537Z,82.67
2023-04-18T01:55:45.920Z,82.76
2023-04-18T01:56:45.486Z,82.73
2023-04-18T01:57:45.896Z,82.75
2023-04-18T01:58:45.935Z,82.77
2023-04-18T01:59:45.676Z,82.77
2023-04-18T02:00:45.501Z,82.80
2023-04-18T02:01:45.971Z,82.82
2023-04-18T02:02:45.534Z,82.81
2023-04-18T02:03:45.729Z,82.83
2023-04-18T02:04:45.645Z,82.89
2023-04-18T02:05:45.923Z,82.98
2023-04-18T02:06:45.591Z,83.04
2023-04-18T02:07:45.937Z,83.08
2023-04-18T02:08:45.385Z,83.14
2023-04-18T02:09:45.568Z,83.16
2023-04-18T02:10:45.943Z,83.23
2023-04-18T02:11:45.340Z,83.32
2023-04-18T02:12:45.303Z,83.32
2023-04-18T02:13:46.764Z,83.36
2023-04-18T02:14:45.271Z,83.68
2023-04-18T02:15:45.323Z,83.80
2023-04-18T02:16:45.344Z,83.78
2023-04-18T02:17:45.303Z,83.73
2023-04-18T02:18:45.478Z,83.82
2023-04-18T02:19:45.239Z,83.98
2023-04-18T02:20:45.354Z,84.12
2023-04-18T02:21:45.219Z,84.30
2023-04-18T02:22:45.468Z,84.31
2023-04-18T02:23:45.205Z,84.32
2023-04-18T02:24:45.174Z,84.36
2023-04-18T02:25:45.192Z,84.33
2023-04-18T02:26:45.519Z,84.33
2023-04-18T02:27:45.532Z,84.39
2023-04-18T02:28:45.549Z,84.38
2023-04-18T02:29:45.139Z,84.28
2023-04-18T02:30:45.578Z,84.25
2023-04-18T02:31:45.158Z,84.25
2023-04-18T02:32:45.123Z,84.25
2023-04-18T02:33:45.076Z,84.25
2023-04-18T02:34:45.184Z,84.28
2023-04-18T02:35:45.064Z,84.38
2023-04-18T02:36:45.092Z,84.37
2023-04-18T02:37:45.221Z,84.34
2023-04-18T02:38:45.034Z,84.35
2023-04-18T02:39:45.339Z,84.32
2023-04-18T02:40:45.043Z,84.33
2023-04-18T02:41:44.989Z,84.42
2023-04-18T02:42:44.965Z,84.46
2023-04-18T02:43:44.947Z,84.44
2023-04-18T02:44:44.949Z,84.42
2023-04-18T02:45:45.546Z,84.41
2023-04-18T02:46:44.961Z,84.39
2023-04-18T02:47:54.287Z,84.38
2023-04-18T02:48:45.903Z,84.42
2023-04-18T02:49:44.892Z,84.42
2023-04-18T02:50:44.887Z,84.39
2023-04-18T02:51:44.865Z,84.43
2023-04-18T02:52:44.870Z,84.20
2023-04-18T02:53:44.866Z,84.20
2023-04-18T02:54:44.851Z,84.30
2023-04-18T02:55:44.970Z,84.38
2023-04-18T02:56:44.822Z,84.39
2023-04-18T02:57:44.795Z,84.37
2023-04-18T02:58:44.780Z,84.41
2023-04-18T02:59:44.778Z,84.45
2023-04-18T03:00:44.773Z,84.53
2023-04-18T03:01:44.986Z,84.74
2023-04-18T03:02:46.318Z,84.68
2023-04-18T03:03:44.718Z,84.75
2023-04-18T03:04:45.041Z,84.77
2023-04-18T03:05:44.687Z,84.79
2023-04-18T03:06:44.694Z,84.88
2023-04-18T03:07:44.799Z,84.88
2023-04-18T03:08:44.671Z,84.88
2023-04-18T03:09:44.978Z,84.88
2023-04-18T03:10:44.652Z,84.86
2023-04-18T03:11:44.979Z,84.88
2023-04-18T03:12:44.654Z,84.85
2023-04-18T03:13:44.613Z,84.87
2023-04-18T03:14:46.080Z,84.84
2023-04-18T03:15:44.671Z,84.80
2023-04-18T03:16:44.588Z,84.80
2023-04-18T03:17:45.008Z,84.79
2023-04-18T03:18:44.568Z,84.76
2023-04-18T03:19:44.572Z,84.78
2023-04-18T03:20:44.549Z,84.78
2023-04-18T03:21:44.615Z,84.68
2023-04-18T03:22:44.562Z,84.59
2023-04-18T03:23:44.486Z,84.52
2023-04-18T03:24:44.497Z,84.49
2023-04-18T03:25:44.731Z,84.43
2023-04-18T03:26:44.564Z,84.44
2023-04-18T03:27:44.787Z,84.40
2023-04-18T03:28:44.440Z,84.41
2023-04-18T03:29:44.422Z,84.30
2023-04-18T03:30:44.892Z,84.21
2023-04-18T03:31:44.481Z,84.25
2023-04-18T03:32:44.458Z,84.32
2023-04-18T03:33:44.384Z,84.37
2023-04-18T03:34:44.420Z,84.42
2023-04-18T03:35:44.417Z,84.48
2023-04-18T03:36:45.924Z,84.45
2023-04-18T03:37:44.320Z,84.52
2023-04-18T03:38:44.460Z,84.56
2023-04-18T03:39:44.291Z,84.66
2023-04-18T03:40:44.297Z,84.67
2023-04-18T03:41:44.500Z,84.67
2023-04-18T03:42:44.283Z,84.75
2023-04-18T03:43:44.249Z,84.86
2023-04-18T03:44:44.552Z,84.80
2023-04-18T03:45:44.358Z,84.83
2023-04-18T03:46:45.789Z,84.97
2023-04-18T03:47:44.652Z,84.99
2023-04-18T03:48:44.228Z,84.96
2023-04-18T03:49:44.618Z,85.01
2023-04-18T03:50:44.566Z,85.05
2023-04-18T03:51:44.220Z,85.16
2023-04-18T03:52:44.160Z,85.20
2023-04-18T03:53:44.680Z,85.18
2023-04-18T03:54:44.154Z,85.21
2023-04-18T03:55:44.112Z,85.32
2023-04-18T03:56:45.585Z,85.36
2023-04-18T03:57:44.441Z,85.44
2023-04-18T03:58:44.114Z,85.44
2023-04-18T03:59:46.145Z,85.47
2023-04-18T04:00:44.054Z,85.52
2023-04-18T04:01:44.794Z,85.54
2023-04-18T04:02:44.305Z,85.54
2023-04-18T04:03:44.225Z,85.54
2023-04-18T04:04:44.065Z,85.54
2023-04-18T04:05:44.027Z,85.54
2023-04-18T04:06:44.028Z,85.59
2023-04-18T04:07:43.967Z,85.59
2023-04-18T04:08:43.982Z,85.62
2023-04-18T04:09:43.948Z,85.54
2023-04-18T04:10:43.952Z,85.57
2023-04-18T04:11:43.939Z,85.71
2023-04-18T04:12:43.942Z,85.85
2023-04-18T04:13:43.901Z,85.86
2023-04-18T04:14:43.913Z,85.87
2023-04-18T04:15:43.870Z,85.82
2023-04-18T04:16:43.926Z,85.82
2023-04-18T04:17:43.916Z,85.81
2023-04-18T04:18:43.885Z,85.79
2023-04-18T04:19:43.835Z,85.78
2023-04-18T04:20:43.834Z,85.75
2023-04-18T04:21:44.036Z,85.78
2023-04-18T04:22:43.816Z,85.74
2023-04-18T04:23:43.781Z,85.74
2023-04-18T04:24:43.793Z,85.75
2023-04-18T04:25:43.767Z,85.79
2023-04-18T04:26:43.767Z,85.80
2023-04-18T04:27:43.770Z,85.77
2023-04-18T04:28:43.749Z,85.76
2023-04-18T04:29:43.716Z,85.76
2023-04-18T04:30:43.711Z,85.77
2023-04-18T04:31:43.844Z,85.76
2023-04-18T04:32:43.757Z,85.74
2023-04-18T04:33:43.698Z,85.72
2023-04-18T04:34:43.677Z,85.66
2023-04-18T04:35:43.650Z,85.80
2023-04-18T04:36:43.642Z,85.93
2023-04-18T04:37:43.632Z,85.93
2023-04-18T04:38:43.640Z,85.93
2023-04-18T04:39:43.592Z,85.91
2023-04-18T04:40:43.596Z,85.85
2023-04-18T04:41:43.584Z,85.71
2023-04-18T04:42:44.052Z,85.61
2023-04-18T04:43:43.553Z,85.45
2023-04-18T04:44:43.652Z,85.39
2023-04-18T04:45:43.897Z,85.49
2023-04-18T04:46:43.515Z,85.50
2023-04-18T04:47:44.062Z,85.50
2023-04-18T04:48:43.727Z,85.49
2023-04-18T04:49:43.490Z,85.60
2023-04-18T04:50:43.471Z,85.64
2023-04-18T04:51:43.447Z,85.75
2023-04-18T04:52:43.451Z,85.84
2023-04-18T04:53:43.495Z,85.82
2023-04-18T04:54:43.462Z,85.84
2023-04-18T04:55:43.396Z,85.75
2023-04-18T04:56:43.390Z,85.65
2023-04-18T04:57:43.424Z,85.51
2023-04-18T04:58:43.385Z,85.48
2023-04-18T04:59:43.381Z,85.46
2023-04-18T05:00:43.371Z,85.42
2023-04-18T05:01:43.417Z,85.38
2023-04-18T05:02:43.497Z,85.38
2023-04-18T05:03:43.531Z,85.35
2023-04-18T05:04:43.392Z,85.28
2023-04-18T05:05:43.283Z,85.32
2023-04-18T05:06:43.306Z,85.31
2023-04-18T05:07:43.686Z,85.18
2023-04-18T05:08:43.475Z,85.36
2023-04-18T05:09:43.753Z,85.34
2023-04-18T05:10:43.736Z,85.36
2023-04-18T05:11:43.208Z,85.33
2023-04-18T05:12:43.215Z,85.12
2023-04-18T05:13:43.177Z,85.05
2023-04-18T05:14:43.216Z,84.90
2023-04-18T05:15:43.165Z,84.59
2023-04-18T05:16:43.208Z,84.46
2023-04-18T05:17:43.843Z,84.33
2023-04-18T05:18:43.160Z,84.21
2023-04-18T05:19:43.145Z,84.12
2023-04-18T05:20:43.113Z,84.02
2023-04-18T05:21:43.126Z,83.98
2023-04-18T05:22:43.100Z,83.80
2023-04-18T05:23:43.059Z,83.74
2023-04-18T05:24:43.091Z,83.74
2023-04-18T05:25:43.084Z,83.71
2023-04-18T05:26:44.516Z,83.62
2023-04-18T05:27:43.023Z,83.63
2023-04-18T05:28:43.033Z,83.79
2023-04-18T05:29:43.012Z,83.81
2023-04-18T05:30:43.031Z,83.71
2023-04-18T05:31:42.984Z,83.66
2023-04-18T05:32:43.056Z,83.69
2023-04-18T05:33:43.089Z,83.80
2023-04-18T05:34:43.082Z,83.86
2023-04-18T05:35:42.930Z,83.95
2023-04-18T05:36:42.935Z,84.04
2023-04-18T05:37:42.916Z,84.11
2023-04-18T05:38:43.079Z,84.32
2023-04-18T05:39:42.910Z,84.44
2023-04-18T05:40:42.887Z,84.61
2023-04-18T05:41:43.089Z,84.64
2023-04-18T05:42:43.098Z,84.39
2023-04-18T05:43:44.482Z,84.30
2023-04-18T05:44:43.865Z,84.34
2023-04-18T05:45:42.860Z,84.30
2023-04-18T05:46:42.914Z,84.22
2023-04-18T05:47:42.872Z,84.12
2023-04-18T05:48:42.799Z,84.07
2023-04-18T05:49:43.111Z,84.05
2023-04-18T05:50:42.818Z,83.99
2023-04-18T05:51:42.749Z,83.85
2023-04-18T05:52:42.748Z,83.52
2023-04-18T05:53:42.726Z,83.41
2023-04-18T05:54:42.727Z,83.64
2023-04-18T05:55:42.725Z,83.47
2023-04-18T05:56:42.722Z,83.41
2023-04-18T05:57:43.105Z,83.68
2023-04-18T05:58:43.607Z,83.53
2023-04-18T05:59:44.108Z,83.37
2023-04-18T06:00:42.674Z,83.09
2023-04-18T06:01:42.673Z,83.02
2023-04-18T06:02:42.766Z,82.88
2023-04-18T06:03:42.862Z,82.77
2023-04-18T06:04:42.907Z,82.51
2023-04-18T06:05:43.134Z,82.26
2023-04-18T06:06:42.615Z,81.78
2023-04-18T06:07:42.574Z,81.69
2023-04-18T06:08:42.567Z,81.87
2023-04-18T06:09:42.553Z,81.92
2023-04-18T06:10:42.545Z,81.55
2023-04-18T06:11:42.603Z,81.17
2023-04-18T06:12:42.529Z,81.05
2023-04-18T06:13:42.634Z,80.44
2023-04-18T06:14:42.509Z,80.26
2023-04-18T06:15:42.597Z,79.42
2023-04-18T06:16:42.530Z,79.38
2023-04-18T06:17:42.520Z,78.92
2023-04-18T06:18:42.459Z,78.01
2023-04-18T06:19:42.450Z,77.41
2023-04-18T06:20:42.448Z,77.24
2023-04-18T06:21:42.433Z,77.01
2023-04-18T06:22:42.406Z,76.54
2023-04-18T06:23:42.386Z,76.30
2023-04-18T06:24:42.391Z,75.29
2023-04-18T06:25:42.355Z,74.43
2023-04-18T06:26:42.350Z,73.70
2023-04-18T06:27:42.352Z,73.58
2023-04-18T06:28:42.337Z,73.22
2023-04-18T06:29:42.910Z,72.82
2023-04-18T06:30:42.301Z,72.50
2023-04-18T06:31:42.421Z,71.89
2023-04-18T06:32:42.348Z,71.00
2023-04-18T06:33:42.884Z,70.57
2023-04-18T06:34:42.261Z,70.33
2023-04-18T06:35:42.260Z,69.87
2023-04-18T06:36:42.276Z,69.37
2023-04-18T06:37:42.438Z,68.82
2023-04-18T06:38:42.979Z,68.86
2023-04-18T06:39:42.187Z,68.70
2023-04-18T06:40:42.201Z,68.41
2023-04-18T06:41:42.162Z,67.98
2023-04-18T06:42:42.201Z,66.76
2023-04-18T06:43:49.311Z,66.86
2023-04-18T06:44:43.318Z,66.54
2023-04-18T06:45:42.499Z,66.11
2023-04-18T06:46:42.106Z,65.71
2023-04-18T06:47:42.187Z,65.28
2023-04-18T06:48:42.061Z,64.84
2023-04-18T06:49:42.089Z,64.69
2023-04-18T06:50:42.065Z,64.60
2023-04-18T06:51:42.068Z,64.48
2023-04-18T06:52:42.059Z,64.78
2023-04-18T06:53:42.054Z,64.10
2023-04-18T06:54:42.047Z,63.25
2023-04-18T06:55:42.046Z,61.89
2023-04-18T06:56:41.978Z,61.95
2023-04-18T06:57:41.995Z,61.70
2023-04-18T06:58:41.985Z,61.19
2023-04-18T06:59:41.993Z,60.56
2023-04-18T07:00:42.056Z,60.15
2023-04-18T07:01:41.967Z,59.48
2023-04-18T07:02:42.030Z,59.25
2023-04-18T07:03:42.108Z,59.15
2023-04-18T07:04:41.984Z,59.58
2023-04-18T07:05:41.883Z,59.45
2023-04-18T07:06:41.866Z,59.56
2023-04-18T07:07:41.882Z,57.81
2023-04-18T07:08:41.859Z,57.43
2023-04-18T07:09:41.874Z,56.66
2023-04-18T07:10:41.819Z,57.42
2023-04-18T07:11:41.830Z,58.11
2023-04-18T07:12:41.821Z,54.89
2023-04-18T07:13:41.820Z,54.58
2023-04-18T07:14:41.803Z,55.28
2023-04-18T07:15:41.782Z,56.55
2023-04-18T07:16:41.815Z,56.19
2023-04-18T07:17:41.771Z,56.89
2023-04-18T07:18:41.743Z,57.03
2023-04-18T07:19:41.755Z,56.97
2023-04-18T07:20:41.744Z,55.86
2023-04-18T07:21:41.701Z,55.15
2023-04-18T07:22:41.682Z,54.16
2023-04-18T07:23:41.691Z,52.56
2023-04-18T07:24:41.677Z,52.41
2023-04-18T07:25:43.131Z,52.18
2023-04-18T07:26:41.643Z,51.81
2023-04-18T07:27:41.688Z,51.90
2023-04-18T07:28:41.613Z,50.99
2023-04-18T07:29:41.621Z,50.66
2023-04-18T07:30:41.597Z,51.26
2023-04-18T07:31:41.622Z,51.82
2023-04-18T07:32:41.620Z,51.58
2023-04-18T07:33:41.570Z,51.98
2023-04-18T07:34:41.722Z,53.75
2023-04-18T07:35:41.604Z,53.58
2023-04-18T07:36:41.551Z,52.42
2023-04-18T07:37:41.541Z,50.73
2023-04-18T07:38:41.491Z,49.91
2023-04-18T07:39:41.501Z,49.91
2023-04-18T07:40:41.488Z,50.54
2023-04-18T07:41:41.486Z,50.66
2023-04-18T07:42:41.473Z,49.80
2023-04-18T07:43:41.500Z,50.96
2023-04-18T07:44:41.428Z,51.17
2023-04-18T07:45:41.436Z,51.64
2023-04-18T07:46:41.540Z,51.80
2023-04-18T07:47:41.575Z,52.82
2023-04-18T07:48:41.921Z,53.15
2023-04-18T07:49:41.383Z,52.80
2023-04-18T07:50:41.529Z,51.94
2023-04-18T07:51:41.960Z,53.57
2023-04-18T07:52:41.982Z,54.39
2023-04-18T07:53:41.533Z,54.78
2023-04-18T07:54:41.306Z,54.87
2023-04-18T07:55:41.374Z,56.15
2023-04-18T07:56:41.296Z,55.95
2023-04-18T07:57:42.041Z,56.30
2023-04-18T07:58:41.280Z,56.00
2023-04-18T07:59:41.296Z,55.95
2023-04-18T08:00:42.076Z,56.14
2023-04-18T08:01:42.050Z,57.18
2023-04-18T08:02:42.810Z,57.46
2023-04-18T08:03:41.318Z,56.84
2023-04-18T08:04:41.393Z,56.72
2023-04-18T08:05:41.236Z,56.88
2023-04-18T08:06:41.188Z,56.94
2023-04-18T08:07:41.189Z,57.69
2023-04-18T08:08:41.213Z,58.40
2023-04-18T08:09:41.163Z,58.99
2023-04-18T08:10:41.185Z,59.99
2023-04-18T08:11:41.144Z,59.43
2023-04-18T08:12:41.136Z,58.89
2023-04-18T08:13:41.226Z,59.35
2023-04-18T08:14:41.106Z,59.13
2023-04-18T08:15:41.090Z,58.89
2023-04-18T08:16:41.284Z,58.76
2023-04-18T08:17:41.275Z,59.21
2023-04-18T08:18:41.225Z,58.86
2023-04-18T08:19:41.038Z,59.87
2023-04-18T08:20:41.038Z,60.75
2023-04-18T08:21:41.037Z,60.86
2023-04-18T08:22:53.270Z,60.64
2023-04-18T08:23:42.040Z,62.03
2023-04-18T08:24:46.431Z,62.27
2023-04-18T08:25:41.993Z,62.01
2023-04-18T08:26:41.216Z,62.20
2023-04-18T08:27:40.950Z,62.39
2023-04-18T08:28:41.227Z,62.14
2023-04-18T08:29:40.916Z,62.03
2023-04-18T08:30:40.909Z,63.16
2023-04-18T08:31:40.938Z,62.73
2023-04-18T08:32:41.275Z,62.78
2023-04-18T08:33:40.875Z,63.27
2023-04-18T08:34:40.850Z,63.16
2023-04-18T08:35:40.890Z,62.74
2023-04-18T08:36:40.845Z,63.37
2023-04-18T08:37:40.863Z,62.67
2023-04-18T08:38:40.824Z,63.09
2023-04-18T08:39:41.242Z,63.63
2023-04-18T08:40:41.232Z,63.13
2023-04-18T08:41:41.235Z,63.04
2023-04-18T08:42:40.772Z,63.25
2023-04-18T08:43:40.752Z,63.86
2023-04-18T08:44:41.249Z,63.89
2023-04-18T08:45:40.746Z,63.74
2023-04-18T08:46:40.704Z,63.75
2023-04-18T08:47:40.787Z,63.71
2023-04-18T08:48:40.722Z,64.01
2023-04-18T08:49:40.734Z,63.79
2023-04-18T08:50:40.752Z,64.02
2023-04-18T08:51:40.666Z,64.14
2023-04-18T08:52:42.103Z,63.53
2023-04-18T08:53:40.637Z,63.53
2023-04-18T08:54:40.803Z,63.50
2023-04-18T08:55:40.823Z,63.54
2023-04-18T08:56:40.593Z,63.53
2023-04-18T08:57:40.844Z,64.18
2023-04-18T08:58:40.856Z,63.71
2023-04-18T08:59:40.579Z,64.21
2023-04-18T09:00:40.586Z,64.14
2023-04-18T09:01:40.608Z,64.64
2023-04-18T09:02:40.643Z,64.21
2023-04-18T09:03:41.540Z,63.52
2023-04-18T09:04:40.673Z,63.80
2023-04-18T09:05:40.513Z,64.18
2023-04-18T09:06:40.732Z,64.13
2023-04-18T09:07:40.774Z,64.42
2023-04-18T09:08:40.808Z,64.97
2023-04-18T09:09:41.904Z,64.40
2023-04-18T09:10:40.506Z,65.52
2023-04-18T09:11:40.439Z,63.95
2023-04-18T09:12:40.423Z,63.81
2023-04-18T09:13:40.392Z,64.69
2023-04-18T09:14:40.392Z,64.42
2023-04-18T09:15:40.456Z,64.16
2023-04-18T09:16:40.424Z,64.05
2023-04-18T09:17:40.440Z,64.67
2023-04-18T09:18:40.326Z,65.06
2023-04-18T09:19:40.327Z,63.98
2023-04-18T09:20:40.341Z,64.96
2023-04-18T09:21:40.313Z,64.93
2023-04-18T09:22:40.293Z,66.64
2023-04-18T09:23:40.297Z,65.96
2023-04-18T09:24:40.361Z,64.00
2023-04-18T09:25:43.311Z,63.60
2023-04-18T09:26:40.252Z,63.94
2023-04-18T09:27:40.256Z,63.01
2023-04-18T09:28:40.223Z,63.52
2023-04-18T09:29:40.225Z,62.37
2023-04-18T09:30:40.366Z,61.54
2023-04-18T09:31:40.189Z,62.38
2023-04-18T09:32:40.186Z,62.11
2023-04-18T09:33:40.171Z,62.33
2023-04-18T09:34:40.142Z,62.52
2023-04-18T09:35:40.136Z,62.32
2023-04-18T09:36:40.170Z,62.37
2023-04-18T09:37:40.116Z,62.02
2023-04-18T09:38:40.115Z,61.31
2023-04-18T09:39:40.099Z,61.36
2023-04-18T09:40:40.081Z,60.57
2023-04-18T09:41:40.109Z,61.36
2023-04-18T09:42:40.052Z,62.43
2023-04-18T09:43:40.080Z,62.96
2023-04-18T09:44:40.160Z,62.73
2023-04-18T09:45:40.043Z,62.92
2023-04-18T09:46:40.100Z,63.29
2023-04-18T09:47:40.081Z,62.59
2023-04-18T09:48:39.981Z,61.89
2023-04-18T09:49:39.998Z,61.31
2023-04-18T09:50:39.992Z,61.81
2023-04-18T09:51:39.989Z,61.50
2023-04-18T09:52:39.943Z,61.61
2023-04-18T09:53:40.036Z,61.10
2023-04-18T09:54:39.927Z,61.06
2023-04-18T09:55:39.966Z,61.64
2023-04-18T09:56:39.878Z,61.31
2023-04-18T09:57:39.908Z,61.32
2023-04-18T09:58:39.866Z,61.21
2023-04-18T09:59:39.865Z,61.30
2023-04-18T10:00:39.844Z,61.65
2023-04-18T10:01:39.869Z,61.24
2023-04-18T10:02:39.953Z,61.04
2023-04-18T10:03:39.962Z,60.76
2023-04-18T10:04:39.813Z,61.18
2023-04-18T10:05:39.869Z,61.64
2023-04-18T10:06:39.871Z,61.88
2023-04-18T10:07:39.781Z,62.22
2023-04-18T10:08:39.755Z,62.25
2023-04-18T10:09:39.732Z,61.77
2023-04-18T10:10:39.730Z,62.58
2023-04-18T10:11:39.711Z,62.15
2023-04-18T10:12:39.716Z,61.34
2023-04-18T10:13:39.708Z,62.17
2023-04-18T10:14:39.671Z,62.32
2023-04-18T10:15:41.192Z,62.91
2023-04-18T10:16:39.704Z,63.10
2023-04-18T10:17:42.764Z,62.42
2023-04-18T10:18:40.611Z,62.45
2023-04-18T10:19:39.632Z,63.79
2023-04-18T10:20:39.588Z,62.26
2023-04-18T10:21:39.598Z,62.15
2023-04-18T10:22:39.581Z,61.99
2023-04-18T10:23:39.602Z,62.81
2023-04-18T10:24:39.623Z,61.58
2023-04-18T10:25:39.559Z,62.75
2023-04-18T10:26:39.535Z,63.84
2023-04-18T10:27:39.528Z,64.32
2023-04-18T10:28:39.524Z,64.22
2023-04-18T10:29:39.537Z,63.52
2023-04-18T10:30:39.485Z,63.49
2023-04-18T10:31:39.573Z,63.67
2023-04-18T10:32:39.502Z,63.12
2023-04-18T10:33:41.062Z,63.35
2023-04-18T10:34:39.457Z,63.95
2023-04-18T10:35:41.327Z,63.25
2023-04-18T10:36:39.399Z,64.19
2023-04-18T10:37:39.418Z,64.88
2023-04-18T10:38:39.719Z,64.41
2023-04-18T10:39:39.404Z,64.36
2023-04-18T10:40:39.393Z,63.06
2023-04-18T10:41:39.370Z,63.02
2023-04-18T10:42:39.371Z,63.66
2023-04-18T10:43:39.351Z,64.17
2023-04-18T10:44:39.311Z,63.75
2023-04-18T10:45:39.320Z,64.27
2023-04-18T10:46:39.336Z,64.40
2023-04-18T10:47:39.483Z,64.54
2023-04-18T10:48:39.377Z,64.88
2023-04-18T10:49:39.283Z,65.05
2023-04-18T10:50:39.249Z,65.47
2023-04-18T10:51:39.252Z,63.97
2023-04-18T10:52:39.214Z,63.68
2023-04-18T10:53:39.226Z,63.80
2023-04-18T10:54:39.262Z,63.09
2023-04-18T10:55:39.349Z,63.54
2023-04-18T10:56:39.204Z,64.11
2023-04-18T10:57:39.195Z,63.54
2023-04-18T10:58:39.167Z,62.99
2023-04-18T10:59:39.127Z,63.10
2023-04-18T11:00:39.177Z,61.84
2023-04-18T11:01:39.157Z,63.25
2023-04-18T11:02:39.296Z,63.84
2023-04-18T11:03:39.186Z,63.72
2023-04-18T11:04:39.111Z,63.45
2023-04-18T11:05:39.087Z,62.37
2023-04-18T11:06:39.079Z,61.70
2023-04-18T11:07:39.091Z,62.57
2023-04-18T11:08:39.057Z,62.63
2023-04-18T11:09:39.041Z,63.47
2023-04-18T11:10:39.060Z,62.80
2023-04-18T11:11:39.369Z,62.35
2023-04-18T11:12:39.029Z,62.09
2023-04-18T11:13:39.350Z,61.79
2023-04-18T11:14:39.362Z,62.54
2023-04-18T11:15:38.983Z,62.17
2023-04-18T11:16:38.980Z,62.36
2023-04-18T11:17:38.979Z,62.41
2023-04-18T11:18:38.950Z,62.01
2023-04-18T11:19:38.921Z,62.94
2023-04-18T11:20:38.938Z,63.32
2023-04-18T11:21:38.897Z,63.19
2023-04-18T11:22:38.893Z,62.98
2023-04-18T11:23:38.859Z,62.14
2023-04-18T11:24:38.894Z,62.11
2023-04-18T11:25:38.842Z,61.62
2023-04-18T11:26:38.861Z,62.18
2023-04-18T11:27:38.810Z,61.80
2023-04-18T11:28:38.812Z,61.91
2023-04-18T11:29:38.844Z,61.59
2023-04-18T11:30:38.800Z,60.74
2023-04-18T11:31:38.824Z,61.86
2023-04-18T11:32:38.776Z,61.78
2023-04-18T11:33:38.751Z,62.30
2023-04-18T11:34:38.764Z,62.39
2023-04-18T11:35:38.760Z,62.37
2023-04-18T11:36:38.773Z,62.56
2023-04-18T11:37:38.686Z,63.05
2023-04-18T11:38:38.707Z,62.27
2023-04-18T11:39:38.667Z,62.76
2023-04-18T11:40:38.672Z,62.52
2023-04-18T11:41:38.653Z,62.50
2023-04-18T11:42:38.656Z,62.14
2023-04-18T11:43:38.614Z,63.12
2023-04-18T11:44:38.632Z,61.28
2023-04-18T11:45:38.716Z,61.28
2023-04-18T11:46:38.691Z,61.18
2023-04-18T11:47:38.626Z,60.78
2023-04-18T11:48:38.594Z,60.95
2023-04-18T11:49:38.560Z,60.61
2023-04-18T11:50:38.571Z,61.52
2023-04-18T11:51:38.790Z,61.29
2023-04-18T11:52:38.545Z,61.03
2023-04-18T11:53:39.225Z,60.93
2023-04-18T11:54:38.581Z,59.38
2023-04-18T11:55:38.533Z,60.78
2023-04-18T11:56:38.498Z,60.85
2023-04-18T11:57:38.549Z,60.62
2023-04-18T11:58:38.502Z,61.38
2023-04-18T11:59:38.433Z,60.90
2023-04-18T12:00:38.449Z,61.33
2023-04-18T12:01:38.887Z,61.93
2023-04-18T12:02:38.526Z,61.19
2023-04-18T12:03:38.637Z,60.24
2023-04-18T12:04:38.640Z,59.94
2023-04-18T12:05:38.877Z,60.04
2023-04-18T12:06:38.370Z,60.02
2023-04-18T12:07:38.349Z,60.39
2023-04-18T12:08:38.369Z,60.26
2023-04-18T12:09:38.598Z,59.78
2023-04-18T12:10:39.772Z,59.16
2023-04-18T12:11:38.308Z,59.34
2023-04-18T12:12:38.296Z,59.01
2023-04-18T12:13:38.284Z,60.30
2023-04-18T12:14:39.743Z,60.03
2023-04-18T12:15:38.290Z,60.32
2023-04-18T12:16:38.246Z,60.26
2023-04-18T12:17:38.868Z,60.00
2023-04-18T12:18:38.228Z,60.71
2023-04-18T12:19:39.745Z,60.40
2023-04-18T12:20:38.210Z,61.02
2023-04-18T12:21:38.179Z,60.13
2023-04-18T12:22:39.648Z,60.83
2023-04-18T12:23:38.150Z,59.91
2023-04-18T12:24:38.189Z,59.28
2023-04-18T12:25:39.087Z,59.43
2023-04-18T12:26:38.434Z,59.07
2023-04-18T12:27:38.100Z,58.73
2023-04-18T12:28:38.118Z,58.54
2023-04-18T12:29:38.099Z,58.70
2023-04-18T12:30:38.097Z,58.97
2023-04-18T12:31:38.103Z,59.79
2023-04-18T12:32:38.063Z,60.79
2023-04-18T12:33:38.957Z,59.69
2023-04-18T12:34:38.045Z,60.52
2023-04-18T12:35:38.774Z,59.58
2023-04-18T12:36:38.016Z,59.71
2023-04-18T12:37:38.017Z,60.03
2023-04-18T12:38:37.995Z,60.26
2023-04-18T12:39:37.990Z,60.10
2023-04-18T12:40:37.955Z,60.85
2023-04-18T12:41:39.394Z,60.78
2023-04-18T12:42:37.956Z,60.04
2023-04-18T12:43:37.913Z,59.81
2023-04-18T12:44:37.931Z,59.41
2023-04-18T12:45:37.913Z,59.59
2023-04-18T12:46:37.942Z,59.50
2023-04-18T12:47:37.897Z,58.80
2023-04-18T12:48:37.907Z,58.87
2023-04-18T12:49:37.864Z,59.21
2023-04-18T12:50:37.873Z,59.74
2023-04-18T12:51:37.864Z,60.44
2023-04-18T12:52:37.821Z,60.45